Aviation Digital Data Service (ADDS)

Output produced by METARs form (0642 UTC 30 March 2017)
found at http://aviationweather.gov/adds/metars/
 
KBDL 300520Z 3006/3112 32005KT P6SM SKC 
     FM301500 36008KT P6SM SKC 
     FM310900 VRB03KT P6SM VCSH OVC025